createdAt,value
2019-05-09T00:02:39.348Z,11.68
2019-05-09T00:05:13.767Z,12.30
2019-05-09T00:07:44.082Z,12.65
2019-05-09T00:10:15.029Z,12.55
2019-05-09T00:12:45.476Z,13.55
2019-05-09T00:15:16.254Z,12.75
2019-05-09T00:17:46.786Z,13.88
2019-05-09T00:20:28.829Z,13.40
2019-05-09T00:22:59.320Z,13.72
2019-05-09T00:25:29.841Z,13.70
2019-05-09T00:28:01.058Z,14.13
2019-05-09T00:30:49.377Z,13.83
2019-05-09T00:33:24.050Z,13.50
2019-05-09T00:35:54.546Z,13.25
2019-05-09T00:38:26.236Z,14.53
2019-05-09T00:40:59.022Z,13.90
2019-05-09T00:43:28.932Z,13.72
2019-05-09T00:46:18.333Z,13.75
2019-05-09T00:49:05.531Z,13.22
2019-05-09T00:51:36.091Z,14.73
2019-05-09T00:54:07.115Z,14.15
2019-05-09T00:56:37.738Z,13.30
2019-05-09T00:59:09.439Z,13.98
2019-05-09T01:01:39.944Z,14.07
2019-05-09T01:04:10.438Z,12.85
2019-05-09T01:06:43.250Z,12.43
2019-05-09T01:09:13.712Z,12.47
2019-05-09T01:11:44.534Z,13.88
2019-05-09T01:14:15.004Z,12.88
2019-05-09T01:16:45.573Z,12.63
2019-05-09T01:19:16.093Z,12.13
2019-05-09T01:21:46.722Z,11.97
2019-05-09T01:24:17.278Z,12.15
2019-05-09T01:26:47.911Z,11.68
2019-05-09T01:29:18.456Z,12.13
2019-05-09T01:32:03.532Z,12.10
2019-05-09T01:34:34.274Z,11.45
2019-05-09T01:37:08.289Z,11.15
2019-05-09T01:39:38.949Z,12.20
2019-05-09T01:42:09.602Z,11.88
2019-05-09T01:44:40.098Z,11.43
2019-05-09T01:47:10.978Z,12.15
2019-05-09T01:49:43.178Z,11.50
2019-05-09T01:52:13.889Z,11.28
2019-05-09T01:54:53.936Z,12.05
2019-05-09T01:57:24.260Z,10.75
2019-05-09T01:59:54.811Z,11.38
2019-05-09T02:02:25.311Z,11.15
2019-05-09T02:04:55.870Z,12.30
2019-05-09T02:07:26.446Z,12.33
2019-05-09T02:09:56.994Z,11.48
2019-05-09T02:12:27.614Z,11.88
2019-05-09T02:15:07.956Z,12.33
2019-05-09T02:17:58.302Z,11.38
2019-05-09T02:20:17.359Z,12.05
2019-05-09T02:22:47.885Z,11.03
2019-05-09T02:25:18.637Z,11.48
2019-05-09T02:27:49.273Z,11.45
2019-05-09T02:30:20.037Z,11.83
2019-05-09T02:32:50.581Z,11.85
2019-05-09T02:35:21.076Z,12.00
2019-05-09T02:37:51.949Z,11.93
2019-05-09T02:40:22.498Z,11.68
2019-05-09T02:42:53.124Z,12.30
2019-05-09T02:45:28.426Z,12.50
2019-05-09T02:47:59.071Z,12.98
2019-05-09T02:50:29.788Z,12.88
2019-05-09T02:53:00.295Z,11.93
2019-05-09T02:55:30.848Z,12.88
2019-05-09T02:58:01.972Z,12.80
2019-05-09T03:01:01.235Z,11.73
2019-05-09T03:03:34.766Z,12.80
2019-05-09T03:06:05.365Z,13.40
2019-05-09T03:08:38.319Z,13.32
2019-05-09T03:11:09.907Z,14.10
2019-05-09T03:13:40.614Z,14.47
2019-05-09T03:16:14.264Z,17.17
2019-05-09T03:18:44.798Z,17.85
2019-05-09T03:21:24.182Z,18.77
2019-05-09T03:23:54.764Z,18.90
2019-05-09T03:26:29.450Z,18.07
2019-05-09T03:29:12.222Z,18.12
2019-05-09T03:31:43.194Z,18.35
2019-05-09T03:34:14.201Z,18.32
2019-05-09T03:36:44.745Z,18.45
2019-05-09T03:39:18.362Z,18.30
2019-05-09T03:41:48.881Z,18.12
2019-05-09T03:44:19.512Z,17.92
2019-05-09T03:47:12.089Z,18.20
2019-05-09T03:49:42.878Z,17.77
2019-05-09T03:52:13.363Z,18.27
2019-05-09T03:54:43.850Z,17.80
2019-05-09T03:57:29.819Z,18.73
2019-05-09T04:00:00.381Z,17.52
2019-05-09T04:02:30.917Z,17.12
2019-05-09T04:05:01.413Z,18.15
2019-05-09T04:07:32.001Z,18.70
2019-05-09T04:10:02.471Z,18.17
2019-05-09T04:12:33.190Z,18.05
2019-05-09T04:15:03.678Z,18.00
2019-05-09T04:17:44.349Z,18.40
2019-05-09T04:20:17.532Z,17.85
2019-05-09T04:22:49.058Z,17.82
2019-05-09T04:25:27.221Z,17.95
2019-05-09T04:27:58.344Z,17.55
2019-05-09T04:30:30.120Z,17.90
2019-05-09T04:33:00.697Z,17.73
2019-05-09T04:35:31.265Z,18.27
2019-05-09T04:38:01.757Z,17.05
2019-05-09T04:40:37.784Z,17.17
2019-05-09T04:43:12.507Z,17.12
2019-05-09T04:45:48.447Z,16.25
2019-05-09T04:48:32.203Z,16.37
2019-05-09T04:51:03.678Z,16.52
2019-05-09T04:53:34.448Z,16.75
2019-05-09T04:56:32.929Z,16.50
2019-05-09T04:59:03.373Z,14.33
2019-05-09T05:01:47.754Z,14.20
2019-05-09T05:04:19.198Z,14.28
2019-05-09T05:06:49.720Z,10.90
2019-05-09T05:09:21.294Z,11.33
2019-05-09T05:11:52.164Z,9.13
2019-05-09T05:14:22.748Z,9.20
2019-05-09T05:16:55.561Z,9.65
2019-05-09T05:19:30.966Z,11.33
2019-05-09T05:22:07.490Z,11.43
2019-05-09T05:24:42.841Z,11.60
2019-05-09T05:27:13.417Z,12.15
2019-05-09T05:29:43.937Z,13.48
2019-05-09T05:32:21.652Z,13.75
2019-05-09T05:35:12.255Z,13.65
2019-05-09T05:37:42.769Z,14.43
2019-05-09T05:40:13.772Z,14.43
2019-05-09T05:42:44.393Z,14.68
2019-05-09T05:45:14.927Z,15.55
2019-05-09T05:48:01.423Z,17.40
2019-05-09T05:50:33.059Z,17.12
2019-05-09T05:53:03.586Z,16.80
2019-05-09T05:55:34.269Z,15.08
2019-05-09T05:58:04.932Z,14.25
2019-05-09T06:00:37.726Z,14.65
2019-05-09T06:03:08.868Z,16.40
2019-05-09T06:05:39.511Z,16.07
2019-05-09T06:08:10.249Z,15.90
2019-05-09T06:10:40.749Z,15.83
2019-05-09T06:13:11.388Z,17.17
2019-05-09T06:15:42.003Z,17.30
2019-05-09T06:18:12.679Z,17.07
2019-05-09T06:20:45.602Z,16.45
2019-05-09T06:23:17.626Z,16.70
2019-05-09T06:25:48.597Z,15.05
2019-05-09T06:28:19.205Z,13.88
2019-05-09T06:30:49.097Z,13.65
2019-05-09T06:33:19.557Z,13.72
2019-05-09T06:35:51.411Z,13.28
2019-05-09T06:38:22.038Z,11.68
2019-05-09T06:40:52.603Z,12.05
2019-05-09T06:43:25.354Z,11.38
2019-05-09T06:46:27.778Z,12.33
2019-05-09T06:49:20.443Z,11.22
2019-05-09T06:51:31.387Z,12.18
2019-05-09T06:54:01.983Z,12.30
2019-05-09T06:56:32.539Z,11.40
2019-05-09T06:59:10.420Z,11.30
2019-05-09T07:04:30.572Z,12.30
2019-05-09T07:09:42.677Z,10.98
2019-05-09T07:12:13.471Z,11.12
2019-05-09T07:14:44.380Z,10.60
2019-05-09T07:17:15.121Z,10.88
2019-05-09T07:19:48.568Z,10.53
2019-05-09T07:22:28.087Z,10.68
2019-05-09T07:25:09.390Z,11.00
2019-05-09T07:27:39.089Z,11.97
2019-05-09T07:30:29.056Z,10.82
2019-05-09T07:33:12.036Z,11.73
2019-05-09T07:35:43.614Z,11.45
2019-05-09T07:38:14.166Z,11.18
2019-05-09T07:40:44.690Z,11.85
2019-05-09T07:43:15.227Z,12.23
2019-05-09T07:46:04.333Z,12.07
2019-05-09T07:48:49.092Z,10.85
2019-05-09T07:51:19.603Z,10.40
2019-05-09T07:53:51.062Z,10.90
2019-05-09T07:56:21.777Z,10.82
2019-05-09T07:58:52.720Z,10.28
2019-05-09T08:01:23.672Z,10.30
2019-05-09T08:03:54.130Z,10.50
2019-05-09T08:06:28.476Z,10.72
2019-05-09T08:08:58.296Z,11.00
2019-05-09T08:11:32.189Z,10.72
2019-05-09T08:14:01.138Z,10.53
2019-05-09T08:16:31.698Z,10.75
2019-05-09T08:19:02.442Z,10.98
2019-05-09T08:21:34.006Z,11.30
2019-05-09T08:24:04.597Z,10.10
2019-05-09T08:26:35.153Z,10.55
2019-05-09T08:29:09.094Z,9.73
2019-05-09T08:31:40.066Z,9.35
2019-05-09T08:34:10.224Z,9.15
2019-05-09T08:36:40.699Z,8.93
2019-05-09T08:39:11.192Z,10.03
2019-05-09T08:41:41.658Z,10.10
2019-05-09T08:44:12.102Z,10.30
2019-05-09T08:46:42.569Z,9.73
2019-05-09T08:49:13.087Z,9.25
2019-05-09T08:52:10.375Z,11.63
2019-05-09T08:54:49.211Z,9.20
2019-05-09T08:57:19.699Z,8.20
2019-05-09T08:59:50.781Z,8.48
2019-05-09T09:02:22.531Z,9.60
2019-05-09T09:04:53.245Z,9.40
2019-05-09T09:07:23.966Z,9.60
2019-05-09T09:09:54.535Z,8.95
2019-05-09T09:12:31.285Z,6.60
2019-05-09T09:14:58.583Z,3.50
2019-05-09T09:17:29.409Z,3.52
2019-05-09T09:20:00.050Z,3.47
2019-05-09T09:22:30.611Z,3.20
2019-05-09T09:25:01.495Z,2.70
2019-05-09T09:27:32.552Z,2.50
2019-05-09T09:30:16.513Z,2.40
2019-05-09T09:32:38.544Z,2.22
2019-05-09T09:35:08.737Z,2.27
2019-05-09T09:37:48.565Z,2.08
2019-05-09T09:40:11.548Z,2.47
2019-05-09T09:42:42.182Z,2.75
2019-05-09T09:45:14.517Z,1.40
2019-05-09T09:47:45.042Z,1.00
2019-05-09T09:50:17.754Z,1.40
2019-05-09T09:52:49.105Z,1.47
2019-05-09T09:55:19.779Z,1.60
2019-05-09T09:57:50.633Z,1.95
2019-05-09T10:00:58.417Z,2.20
2019-05-09T10:06:03.749Z,1.62
2019-05-09T10:08:34.448Z,1.50
2019-05-09T10:11:07.874Z,1.60
2019-05-09T10:13:37.517Z,1.60
2019-05-09T10:16:30.013Z,1.70
2019-05-09T10:19:18.394Z,1.20
2019-05-09T10:21:51.246Z,1.02
2019-05-09T10:24:21.707Z,1.37
2019-05-09T10:27:09.218Z,1.17
2019-05-09T10:32:13.212Z,1.00
2019-05-09T10:34:44.085Z,1.50
2019-05-09T10:37:15.544Z,1.20
2019-05-09T10:39:48.763Z,1.27
2019-05-09T10:42:32.959Z,1.65
2019-05-09T10:45:27.904Z,2.25
2019-05-09T10:47:58.407Z,1.90
2019-05-09T10:50:33.788Z,2.05
2019-05-09T10:53:00.976Z,1.85
2019-05-09T10:55:31.435Z,2.55
2019-05-09T10:58:02.670Z,2.58
2019-05-09T11:00:33.486Z,2.58
2019-05-09T11:03:04.106Z,2.37
2019-05-09T11:05:34.649Z,2.17
2019-05-09T11:08:07.911Z,2.35
2019-05-09T11:10:39.556Z,2.52
2019-05-09T11:13:09.591Z,2.40
2019-05-09T11:15:40.301Z,2.12
2019-05-09T11:18:10.860Z,2.12
2019-05-09T11:20:41.329Z,2.45
2019-05-09T11:23:11.857Z,2.80
2019-05-09T11:25:42.311Z,2.62
2019-05-09T11:28:15.155Z,2.70
2019-05-09T11:30:45.027Z,2.72
2019-05-09T11:33:18.179Z,2.90
2019-05-09T11:35:48.044Z,2.87
2019-05-09T11:38:33.329Z,2.22
2019-05-09T11:40:50.785Z,2.08
2019-05-09T11:43:21.288Z,2.50
2019-05-09T11:45:51.883Z,2.50
2019-05-09T11:48:22.357Z,3.05
2019-05-09T11:50:53.633Z,3.47
2019-05-09T11:53:24.269Z,3.83
2019-05-09T11:55:54.841Z,2.90
2019-05-09T11:58:25.398Z,2.60
2019-05-09T12:00:55.890Z,3.30
2019-05-09T12:03:26.453Z,3.15
2019-05-09T12:05:58.308Z,2.70
2019-05-09T12:08:29.017Z,2.80
2019-05-09T12:10:59.560Z,3.12
2019-05-09T12:13:30.018Z,2.85
2019-05-09T12:16:00.703Z,4.75
2019-05-09T12:18:31.166Z,28.52
2019-05-09T12:21:01.715Z,4.08
2019-05-09T12:23:32.207Z,2.47
2019-05-09T12:26:02.976Z,2.52
2019-05-09T12:28:44.576Z,3.37
2019-05-09T12:31:28.775Z,3.20
2019-05-09T12:33:59.689Z,2.20
2019-05-09T12:36:31.156Z,1.90
2019-05-09T12:39:01.692Z,1.85
2019-05-09T12:41:33.615Z,2.10
2019-05-09T12:44:04.231Z,2.27
2019-05-09T12:46:34.767Z,2.35
2019-05-09T12:49:05.268Z,2.35
2019-05-09T12:51:37.660Z,2.60
2019-05-09T12:54:08.426Z,2.17
2019-05-09T12:56:39.590Z,3.02
2019-05-09T12:59:10.068Z,3.58
2019-05-09T13:01:41.763Z,2.70
2019-05-09T13:04:12.258Z,2.42
2019-05-09T13:06:42.758Z,2.65
2019-05-09T13:09:14.302Z,3.35
2019-05-09T13:11:45.132Z,2.92
2019-05-09T13:14:15.719Z,3.30
2019-05-09T13:17:05.124Z,2.50
2019-05-09T13:19:44.324Z,3.00
2019-05-09T13:22:28.394Z,3.20
2019-05-09T13:25:02.463Z,3.20
2019-05-09T13:27:32.245Z,2.30
2019-05-09T13:30:02.831Z,2.17
2019-05-09T13:32:33.468Z,12.70
2019-05-09T13:35:05.074Z,2.05
2019-05-09T13:37:38.227Z,4.87
2019-05-09T13:40:08.590Z,4.33
2019-05-09T13:42:39.785Z,3.37
2019-05-09T13:45:10.729Z,3.17
2019-05-09T13:47:41.229Z,3.50
2019-05-09T13:50:11.933Z,4.28
2019-05-09T13:52:42.488Z,5.12
2019-05-09T13:55:12.933Z,5.83
2019-05-09T13:57:43.465Z,5.12
2019-05-09T14:00:14.067Z,6.30
2019-05-09T14:02:45.369Z,6.53
2019-05-09T14:05:18.609Z,5.58
2019-05-09T14:07:49.261Z,4.42
2019-05-09T14:10:20.624Z,2.42
2019-05-09T14:13:05.769Z,3.35
2019-05-09T14:15:23.345Z,3.72
2019-05-09T14:17:54.213Z,2.58
2019-05-09T14:20:24.852Z,3.17
2019-05-09T14:22:57.467Z,2.52
2019-05-09T14:25:29.079Z,3.92
2019-05-09T14:27:59.879Z,3.05
2019-05-09T14:30:30.426Z,3.20
2019-05-09T14:33:00.938Z,2.20
2019-05-09T14:35:31.444Z,2.87
2019-05-09T14:38:02.455Z,3.52
2019-05-09T14:40:33.066Z,3.80
2019-05-09T14:43:02.962Z,2.08
2019-05-09T14:45:33.476Z,3.27
2019-05-09T14:48:03.988Z,2.05
2019-05-09T14:50:34.912Z,5.47
2019-05-09T14:53:08.312Z,13.13
2019-05-09T14:55:39.130Z,12.55
2019-05-09T14:58:09.652Z,5.20
2019-05-09T15:00:40.259Z,3.20
2019-05-09T15:03:11.671Z,2.25
2019-05-09T15:05:42.168Z,2.52
2019-05-09T15:08:12.621Z,1.95
2019-05-09T15:10:43.092Z,2.47
2019-05-09T15:13:13.570Z,2.80
2019-05-09T15:15:44.250Z,3.72
2019-05-09T15:18:14.670Z,3.72
2019-05-09T15:20:45.268Z,2.90
2019-05-09T15:23:15.779Z,2.60
2019-05-09T15:25:48.007Z,2.77
2019-05-09T15:28:18.514Z,2.92
2019-05-09T15:30:49.077Z,3.58
2019-05-09T15:33:19.832Z,13.10
2019-05-09T15:35:50.304Z,4.95
2019-05-09T15:38:22.511Z,5.03
2019-05-09T15:40:52.941Z,5.42
2019-05-09T15:43:23.456Z,5.65
2019-05-09T15:46:10.147Z,4.45
2019-05-09T15:48:40.610Z,7.05
2019-05-09T15:51:11.120Z,8.13
2019-05-09T15:53:41.709Z,3.22
2019-05-09T15:56:12.191Z,2.65
2019-05-09T15:58:42.740Z,2.62
2019-05-09T16:01:14.338Z,2.75
2019-05-09T16:03:44.912Z,2.20
2019-05-09T16:06:18.275Z,2.67
2019-05-09T16:08:47.685Z,3.10
2019-05-09T16:11:18.286Z,4.12
2019-05-09T16:13:48.792Z,2.40
2019-05-09T16:16:19.485Z,2.98
2019-05-09T16:18:50.072Z,2.87
2019-05-09T16:21:20.536Z,3.20
2019-05-09T16:23:51.091Z,4.00
2019-05-09T16:26:21.544Z,3.58
2019-05-09T16:28:52.036Z,3.52
2019-05-09T16:31:22.712Z,3.17
2019-05-09T16:33:53.273Z,2.50
2019-05-09T16:36:24.832Z,2.70
2019-05-09T16:38:55.418Z,2.65
2019-05-09T16:41:27.881Z,2.15
2019-05-09T16:43:58.448Z,2.00
2019-05-09T16:46:28.896Z,2.30
2019-05-09T16:49:00.733Z,2.50
2019-05-09T16:51:32.300Z,3.35
2019-05-09T16:54:02.800Z,3.27
2019-05-09T16:56:33.318Z,4.85
2019-05-09T16:59:03.885Z,4.50
2019-05-09T17:01:39.092Z,4.05
2019-05-09T17:04:08.274Z,3.90
2019-05-09T17:06:38.952Z,3.12
2019-05-09T17:09:12.787Z,3.70
2019-05-09T17:11:43.324Z,3.65
2019-05-09T17:14:13.833Z,3.27
2019-05-09T17:16:44.674Z,4.15
2019-05-09T17:19:19.177Z,4.42
2019-05-09T17:21:53.008Z,3.90
2019-05-09T17:24:23.600Z,4.03
2019-05-09T17:26:54.481Z,5.22
2019-05-09T17:29:27.855Z,2.98
2019-05-09T17:31:58.385Z,3.10
2019-05-09T17:34:29.082Z,2.90
2019-05-09T17:36:59.603Z,2.20
2019-05-09T17:39:30.170Z,2.72
2019-05-09T17:42:00.713Z,2.65
2019-05-09T17:44:31.268Z,2.67
2019-05-09T17:47:01.903Z,2.40
2019-05-09T17:49:32.486Z,2.50
2019-05-09T17:52:03.122Z,3.25
2019-05-09T17:54:33.615Z,3.25
2019-05-09T17:57:04.453Z,4.33
2019-05-09T17:59:34.998Z,3.08
2019-05-09T18:02:05.577Z,2.45
2019-05-09T18:04:37.883Z,2.72
2019-05-09T18:07:08.917Z,3.10
2019-05-09T18:09:39.528Z,3.40
2019-05-09T18:12:10.023Z,3.15
2019-05-09T18:14:40.458Z,3.12
2019-05-09T18:17:11.175Z,3.55
2019-05-09T18:19:41.697Z,3.40
2019-05-09T18:22:12.549Z,3.10
2019-05-09T18:24:43.024Z,4.00
2019-05-09T18:27:13.544Z,3.02
2019-05-09T18:29:43.991Z,3.98
2019-05-09T18:32:38.310Z,3.52
2019-05-09T18:35:14.474Z,3.55
2019-05-09T18:37:44.987Z,3.27
2019-05-09T18:40:17.996Z,3.37
2019-05-09T18:42:49.434Z,3.50
2019-05-09T18:45:23.201Z,3.20
2019-05-09T18:47:53.660Z,3.87
2019-05-09T18:50:24.310Z,4.58
2019-05-09T18:52:55.231Z,4.12
2019-05-09T18:55:25.736Z,3.95
2019-05-09T18:57:56.243Z,4.28
2019-05-09T19:00:28.154Z,4.55
2019-05-09T19:02:58.800Z,4.03
2019-05-09T19:05:29.316Z,3.90
2019-05-09T19:07:59.895Z,4.20
2019-05-09T19:10:30.370Z,4.72
2019-05-09T19:13:01.382Z,4.58
2019-05-09T19:15:49.942Z,4.90
2019-05-09T19:18:35.321Z,4.90
2019-05-09T19:21:13.883Z,4.92
2019-05-09T19:23:44.421Z,4.75
2019-05-09T19:26:33.532Z,3.98
2019-05-09T19:29:04.564Z,4.42
2019-05-09T19:31:35.024Z,5.40
2019-05-09T19:34:06.151Z,5.00
2019-05-09T19:36:37.420Z,5.62
2019-05-09T19:39:10.023Z,5.92
2019-05-09T19:41:40.839Z,6.37
2019-05-09T19:44:11.403Z,5.87
2019-05-09T19:46:41.927Z,6.83
2019-05-09T19:49:12.481Z,7.37
2019-05-09T19:51:43.002Z,7.28
2019-05-09T19:54:13.512Z,7.53
2019-05-09T19:56:43.404Z,8.18
2019-05-09T19:59:13.853Z,10.60
2019-05-09T20:01:44.328Z,9.05
2019-05-09T20:04:14.852Z,9.68
2019-05-09T20:06:45.429Z,10.08
2019-05-09T20:09:30.706Z,9.55
2019-05-09T20:12:36.539Z,10.03
2019-05-09T20:15:08.527Z,9.03
2019-05-09T20:17:39.439Z,9.28
2019-05-09T20:20:10.315Z,10.15
2019-05-09T20:22:51.960Z,8.38
2019-05-09T20:25:13.409Z,6.97
2019-05-09T20:27:44.083Z,8.55
2019-05-09T20:30:14.990Z,6.87
2019-05-09T20:32:45.496Z,7.33
2019-05-09T20:35:16.088Z,6.87
2019-05-09T20:37:46.735Z,6.30
2019-05-09T20:40:17.461Z,6.42
2019-05-09T20:42:48.196Z,5.83
2019-05-09T20:45:19.044Z,6.05
2019-05-09T20:47:49.775Z,6.50
2019-05-09T20:50:20.756Z,6.65
2019-05-09T20:52:51.424Z,6.95
2019-05-09T20:55:22.048Z,7.62
2019-05-09T20:57:52.794Z,8.05
2019-05-09T21:00:24.521Z,7.87
2019-05-09T21:02:55.278Z,8.65
2019-05-09T21:05:26.095Z,9.78
2019-05-09T21:07:56.801Z,8.98
2019-05-09T21:10:27.522Z,7.87
2019-05-09T21:12:58.217Z,7.97
2019-05-09T21:15:28.894Z,7.97
2019-05-09T21:17:59.683Z,7.65
2019-05-09T21:20:30.370Z,7.50
2019-05-09T21:23:01.096Z,7.53
2019-05-09T21:25:33.482Z,7.87
2019-05-09T21:28:04.136Z,8.08
2019-05-09T21:30:34.800Z,7.83
2019-05-09T21:33:05.506Z,8.30
2019-05-09T21:35:36.049Z,8.28
2019-05-09T21:38:06.620Z,8.00
2019-05-09T21:40:37.134Z,8.68
2019-05-09T21:43:07.653Z,7.58
2019-05-09T21:45:38.168Z,8.05
2019-05-09T21:48:08.622Z,7.50
2019-05-09T21:50:40.199Z,7.37
2019-05-09T21:53:10.696Z,8.05
2019-05-09T21:55:41.247Z,7.80
2019-05-09T21:58:11.790Z,8.30
2019-05-09T22:00:44.406Z,7.90
2019-05-09T22:03:16.827Z,7.92
2019-05-09T22:05:47.360Z,8.20
2019-05-09T22:08:17.923Z,8.70
2019-05-09T22:10:48.470Z,8.50
2019-05-09T22:13:18.960Z,8.08
2019-05-09T22:15:49.679Z,8.70
2019-05-09T22:18:20.216Z,8.13
2019-05-09T22:20:50.812Z,7.75
2019-05-09T22:23:21.319Z,8.23
2019-05-09T22:25:51.802Z,8.78
2019-05-09T22:28:22.419Z,8.40
2019-05-09T22:30:52.939Z,8.35
2019-05-09T22:33:23.513Z,8.90
2019-05-09T22:35:54.045Z,8.90
2019-05-09T22:38:24.576Z,9.80
2019-05-09T22:40:55.026Z,9.95
2019-05-09T22:43:25.523Z,9.90
2019-05-09T22:45:55.986Z,9.55
2019-05-09T22:48:26.613Z,9.45
2019-05-09T22:50:57.118Z,8.73
2019-05-09T22:53:27.625Z,9.48
2019-05-09T22:55:58.089Z,9.38
2019-05-09T22:58:28.590Z,9.43
2019-05-09T23:00:59.024Z,9.48
2019-05-09T23:03:29.655Z,10.18
2019-05-09T23:06:01.156Z,10.40
2019-05-09T23:08:31.772Z,10.60
2019-05-09T23:11:02.227Z,9.83
2019-05-09T23:13:36.103Z,10.65
2019-05-09T23:16:06.695Z,11.10
2019-05-09T23:18:37.213Z,10.28
2019-05-09T23:21:20.851Z,8.73
2019-05-09T23:23:58.246Z,7.55
2019-05-09T23:26:28.770Z,6.62
2019-05-09T23:28:59.409Z,5.47
2019-05-09T23:31:43.898Z,5.78
2019-05-09T23:34:14.490Z,5.40
2019-05-09T23:36:45.016Z,5.00
2019-05-09T23:39:23.045Z,5.20
2019-05-09T23:41:53.637Z,5.07
2019-05-09T23:44:24.086Z,4.72
2019-05-09T23:46:54.653Z,4.67
2019-05-09T23:49:25.226Z,5.37
2019-05-09T23:51:55.925Z,4.90
2019-05-09T23:54:46.772Z,4.67
2019-05-09T23:57:34.073Z,5.22
